Weather at Las Américas International Airport

Public forecast

Using degrees Celsius for public forecast. Weather courtesy of forecast.io.

Current aviation weather report (METAR) for Las Américas International Airport

Retrieved 2021/11/27 13:00 UTC (50 minutes ago):

MDSD 271300Z 04004KT 9999 FEW018 26/22 Q1015

Aviation forecast (TAF) for Las Américas International Airport

Retrieved 2021/11/27 12:16 UTC (2 hours ago):

TAF MDSD 271000Z 2712/2812 00000KT 9999 SCT018 PROB30 2717/2722 7000 -RA FEW016CB BKN018